createdAt,value
2022-11-12T00:00:30.177Z,3.27
2022-11-12T00:01:02.409Z,3.38
2022-11-12T00:01:33.710Z,3.38
2022-11-12T00:02:06.468Z,3.38
2022-11-12T00:02:34.099Z,3.38
2022-11-12T00:02:53.754Z,3.50
2022-11-12T00:03:25.792Z,3.38
2022-11-12T00:03:57.609Z,3.38
2022-11-12T00:04:29.575Z,3.50
2022-11-12T00:05:01.844Z,3.50
2022-11-12T00:05:33.715Z,3.50
2022-11-12T00:06:05.583Z,3.50
2022-11-12T00:06:34.172Z,3.50
2022-11-12T00:06:53.628Z,3.50
2022-11-12T00:07:26.327Z,3.50
2022-11-12T00:07:57.723Z,3.50
2022-11-12T00:08:30.587Z,3.38
2022-11-12T00:09:01.651Z,3.38
2022-11-12T00:09:35.558Z,3.38
2022-11-12T00:10:05.922Z,3.38
2022-11-12T00:10:33.985Z,3.38
2022-11-12T00:10:53.765Z,3.38
2022-11-12T00:11:25.662Z,3.38
2022-11-12T00:11:58.580Z,3.38
2022-11-12T00:12:29.721Z,3.38
2022-11-12T00:13:02.362Z,3.38
2022-11-12T00:13:33.567Z,3.38
2022-11-12T00:14:06.265Z,3.38
2022-11-12T00:14:33.914Z,3.38
2022-11-12T00:14:53.674Z,3.38
2022-11-12T00:15:25.852Z,3.38
2022-11-12T00:15:57.601Z,3.38
2022-11-12T00:16:29.730Z,3.38
2022-11-12T00:17:18.684Z,3.38
2022-11-12T00:17:49.598Z,3.38
2022-11-12T00:18:23.024Z,3.38
2022-11-12T00:18:39.982Z,3.38
2022-11-12T00:19:09.850Z,3.38
2022-11-12T00:19:33.961Z,3.38
2022-11-12T00:19:57.548Z,3.38
2022-11-12T00:20:30.713Z,3.38
2022-11-12T00:21:01.735Z,3.38
2022-11-12T00:21:35.044Z,3.38
2022-11-12T00:22:05.657Z,3.38
2022-11-12T00:22:33.928Z,3.38
2022-11-12T00:22:53.785Z,3.38
2022-11-12T00:23:25.790Z,3.38
2022-11-12T00:23:58.431Z,3.38
2022-11-12T00:24:29.604Z,3.38
2022-11-12T00:25:02.878Z,3.38
2022-11-12T00:25:33.865Z,3.38
2022-11-12T00:26:22.694Z,3.38
2022-11-12T00:26:39.865Z,3.38
2022-11-12T00:27:09.745Z,3.38
2022-11-12T00:27:34.121Z,3.38
2022-11-12T00:27:57.805Z,3.38
2022-11-12T00:28:36.294Z,3.38
2022-11-12T00:29:01.597Z,3.38
2022-11-12T00:29:35.799Z,3.38
2022-11-12T00:30:05.948Z,3.38
2022-11-12T00:30:34.085Z,3.38
2022-11-12T00:30:53.702Z,3.38
2022-11-12T00:31:25.728Z,3.38
2022-11-12T00:31:58.903Z,3.38
2022-11-12T00:32:29.593Z,3.38
2022-11-12T00:33:02.449Z,3.38
2022-11-12T00:33:34.625Z,3.38
2022-11-12T00:34:06.795Z,3.38
2022-11-12T00:34:33.953Z,3.38
2022-11-12T00:34:53.580Z,3.38
2022-11-12T00:35:25.682Z,3.38
2022-11-12T00:36:14.523Z,3.27
2022-11-12T00:36:34.071Z,3.27
2022-11-12T00:37:01.620Z,3.27
2022-11-12T00:37:33.666Z,3.27
2022-11-12T00:38:05.806Z,3.27
2022-11-12T00:38:33.913Z,3.27
2022-11-12T00:38:53.765Z,3.27
2022-11-12T00:39:26.439Z,3.27
2022-11-12T00:39:57.591Z,3.27
2022-11-12T00:40:30.719Z,3.27
2022-11-12T00:41:01.798Z,3.27
2022-11-12T00:41:35.554Z,3.22
2022-11-12T00:42:05.881Z,3.22
2022-11-12T00:42:33.920Z,3.22
2022-11-12T00:42:53.815Z,3.22
2022-11-12T00:43:25.766Z,3.22
2022-11-12T00:43:58.354Z,3.22
2022-11-12T00:44:29.638Z,3.22
2022-11-12T00:45:02.793Z,3.22
2022-11-12T00:45:33.746Z,3.22
2022-11-12T00:46:06.516Z,3.22
2022-11-12T00:46:34.119Z,3.22
2022-11-12T00:46:53.727Z,3.22
2022-11-12T00:47:25.795Z,3.22
2022-11-12T00:47:57.672Z,3.22
2022-11-12T00:48:29.803Z,3.27
2022-11-12T00:49:01.732Z,3.27
2022-11-12T00:49:33.758Z,3.27
2022-11-12T00:50:05.956Z,3.27
2022-11-12T00:50:34.136Z,3.27
2022-11-12T00:50:53.666Z,3.38
2022-11-12T00:51:26.541Z,3.38
2022-11-12T00:51:57.794Z,3.38
2022-11-12T00:52:30.489Z,3.38
2022-11-12T00:53:01.687Z,3.38
2022-11-12T00:53:35.740Z,3.38
2022-11-12T00:54:05.762Z,3.50
2022-11-12T00:54:34.071Z,3.50
2022-11-12T00:54:53.665Z,3.50
2022-11-12T00:55:25.768Z,3.50
2022-11-12T00:55:58.754Z,3.50
2022-11-12T00:56:34.479Z,3.50
2022-11-12T00:57:02.489Z,3.50
2022-11-12T00:57:33.814Z,3.38
2022-11-12T00:58:06.560Z,3.38
2022-11-12T00:58:33.981Z,3.38
2022-11-12T00:58:54.083Z,3.38
2022-11-12T00:59:25.589Z,3.38
2022-11-12T00:59:57.599Z,3.27
2022-11-12T01:00:29.957Z,3.27
2022-11-12T01:01:01.897Z,3.27
2022-11-12T01:01:33.622Z,3.27
2022-11-12T01:02:05.598Z,3.27
2022-11-12T01:02:40.721Z,3.27
2022-11-12T01:02:53.735Z,3.27
2022-11-12T01:03:26.545Z,3.27
2022-11-12T01:03:57.702Z,3.27
2022-11-12T01:04:30.577Z,3.38
2022-11-12T01:05:01.964Z,3.38
2022-11-12T01:05:33.738Z,3.38
2022-11-12T01:06:06.026Z,3.38
2022-11-12T01:06:35.054Z,3.38
2022-11-12T01:06:53.698Z,3.38
2022-11-12T01:07:25.738Z,3.38
2022-11-12T01:07:58.646Z,3.38
2022-11-12T01:08:33.992Z,3.50
2022-11-12T01:09:01.881Z,3.50
2022-11-12T01:09:33.920Z,3.50
2022-11-12T01:10:05.699Z,3.50
2022-11-12T01:10:34.017Z,3.50
2022-11-12T01:10:53.920Z,3.50
2022-11-12T01:11:34.761Z,3.50
2022-11-12T01:11:57.671Z,3.50
2022-11-12T01:12:29.704Z,3.50
2022-11-12T01:13:03.001Z,3.50
2022-11-12T01:13:33.767Z,3.50
2022-11-12T01:14:05.618Z,3.50
2022-11-12T01:14:34.131Z,3.50
2022-11-12T01:14:54.077Z,3.50
2022-11-12T01:15:25.953Z,3.50
2022-11-12T01:15:58.374Z,3.50
2022-11-12T01:16:33.676Z,3.50
2022-11-12T01:17:02.157Z,3.50
2022-11-12T01:17:33.768Z,3.50
2022-11-12T01:18:06.418Z,3.38
2022-11-12T01:18:34.167Z,3.38
2022-11-12T01:18:53.695Z,3.38
2022-11-12T01:19:25.790Z,3.38
2022-11-12T01:19:57.642Z,3.27
2022-11-12T01:20:29.731Z,3.27
2022-11-12T01:21:01.774Z,3.27
2022-11-12T01:21:34.458Z,3.27
2022-11-12T01:22:05.816Z,3.38
2022-11-12T01:22:34.263Z,3.38
2022-11-12T01:22:53.593Z,3.38
2022-11-12T01:23:26.605Z,3.27
2022-11-12T01:23:57.795Z,3.27
2022-11-12T01:24:30.412Z,3.27
2022-11-12T01:25:01.832Z,3.27
2022-11-12T01:25:34.897Z,3.27
2022-11-12T01:26:05.760Z,3.22
2022-11-12T01:26:33.972Z,3.22
2022-11-12T01:26:53.619Z,3.22
2022-11-12T01:27:27.719Z,3.22
2022-11-12T01:27:58.169Z,3.11
2022-11-12T01:28:29.811Z,3.11
2022-11-12T01:29:02.431Z,3.11
2022-11-12T01:29:33.638Z,3.11
2022-11-12T01:30:06.417Z,3.11
2022-11-12T01:30:33.930Z,3.11
2022-11-12T01:30:53.700Z,3.22
2022-11-12T01:31:25.618Z,3.22
2022-11-12T01:31:57.827Z,3.22
2022-11-12T01:32:29.818Z,3.22
2022-11-12T01:33:01.905Z,3.22
2022-11-12T01:33:34.907Z,3.11
2022-11-12T01:34:05.791Z,3.11
2022-11-12T01:34:33.956Z,3.11
2022-11-12T01:34:55.461Z,3.11
2022-11-12T01:35:25.740Z,3.11
2022-11-12T01:35:58.441Z,3.11
2022-11-12T01:36:29.758Z,3.11
2022-11-12T01:37:02.150Z,3.11
2022-11-12T01:37:33.655Z,3.11
2022-11-12T01:38:06.472Z,3.00
2022-11-12T01:38:33.933Z,3.00
2022-11-12T01:39:00.564Z,3.00
2022-11-12T01:39:35.894Z,3.00
2022-11-12T01:39:57.615Z,3.00
2022-11-12T01:40:34.853Z,3.00
2022-11-12T01:41:01.767Z,3.00
2022-11-12T01:41:33.758Z,3.00
2022-11-12T01:42:05.613Z,3.00
2022-11-12T01:42:34.499Z,3.00
2022-11-12T01:42:54.355Z,3.00
2022-11-12T01:43:25.847Z,3.00
2022-11-12T01:43:58.490Z,3.00
2022-11-12T01:44:29.645Z,3.00
2022-11-12T01:45:03.092Z,3.00
2022-11-12T01:45:33.828Z,3.00
2022-11-12T01:46:06.536Z,3.00
2022-11-12T01:46:34.141Z,3.00
2022-11-12T01:46:53.611Z,3.00
2022-11-12T01:47:25.696Z,3.00
2022-11-12T01:47:57.902Z,3.00
2022-11-12T01:48:29.742Z,3.00
2022-11-12T01:49:01.732Z,3.00
2022-11-12T01:49:33.653Z,3.00
2022-11-12T01:50:06.098Z,3.00
2022-11-12T01:50:33.981Z,3.00
2022-11-12T01:50:53.889Z,3.00
2022-11-12T01:51:26.499Z,3.00
2022-11-12T01:51:57.714Z,3.00
2022-11-12T01:52:31.441Z,2.88
2022-11-12T01:53:01.860Z,2.88
2022-11-12T01:53:34.469Z,2.88
2022-11-12T01:54:05.662Z,2.88
2022-11-12T01:54:33.987Z,3.00
2022-11-12T01:54:53.925Z,3.00
2022-11-12T01:55:25.730Z,3.00
2022-11-12T01:55:58.351Z,3.00
2022-11-12T01:56:29.744Z,3.00
2022-11-12T01:57:18.233Z,3.11
2022-11-12T01:57:49.643Z,3.11
2022-11-12T01:58:21.707Z,3.11
2022-11-12T01:58:39.728Z,3.11
2022-11-12T01:59:09.905Z,3.11
2022-11-12T02:00:16.264Z,3.11
2022-11-12T02:01:22.475Z,3.11
2022-11-12T02:02:28.607Z,3.11
2022-11-12T02:03:34.738Z,3.11
2022-11-12T02:04:30.493Z,3.38
2022-11-12T02:05:02.906Z,3.38
2022-11-12T02:05:35.128Z,3.38
2022-11-12T02:06:05.765Z,3.38
2022-11-12T02:06:36.290Z,3.38
2022-11-12T02:06:54.554Z,3.38
2022-11-12T02:07:25.821Z,3.27
2022-11-12T02:07:58.343Z,3.27
2022-11-12T02:08:29.722Z,3.27
2022-11-12T02:09:02.538Z,3.27
2022-11-12T02:09:33.705Z,3.27
2022-11-12T02:10:06.996Z,3.27
2022-11-12T02:10:34.086Z,3.27
2022-11-12T02:10:54.130Z,3.22
2022-11-12T02:11:25.601Z,3.22
2022-11-12T02:11:57.801Z,3.22
2022-11-12T02:12:34.156Z,3.22
2022-11-12T02:13:01.676Z,3.11
2022-11-12T02:13:34.221Z,3.11
2022-11-12T02:14:05.704Z,3.11
2022-11-12T02:14:33.953Z,3.11
2022-11-12T02:15:10.342Z,3.11
2022-11-12T02:15:33.922Z,3.11
2022-11-12T02:15:57.740Z,3.11
2022-11-12T02:16:30.300Z,3.11
2022-11-12T02:17:01.838Z,3.11
2022-11-12T02:17:34.889Z,3.11
2022-11-12T02:18:05.625Z,3.11
2022-11-12T02:18:33.942Z,3.11
2022-11-12T02:18:54.175Z,3.11
2022-11-12T02:19:25.751Z,3.11
2022-11-12T02:19:58.547Z,3.00
2022-11-12T02:20:34.057Z,3.00
2022-11-12T02:21:02.348Z,3.00
2022-11-12T02:21:33.801Z,2.88
2022-11-12T02:22:06.483Z,2.88
2022-11-12T02:22:34.228Z,2.88
2022-11-12T02:22:53.763Z,2.88
2022-11-12T02:23:25.798Z,2.88
2022-11-12T02:23:58.237Z,2.88
2022-11-12T02:24:29.735Z,2.88
2022-11-12T02:25:01.822Z,2.88
2022-11-12T02:25:33.859Z,2.88
2022-11-12T02:26:05.807Z,2.77
2022-11-12T02:26:34.078Z,2.77
2022-11-12T02:26:53.680Z,2.77
2022-11-12T02:27:26.531Z,2.77
2022-11-12T02:27:57.791Z,2.72
2022-11-12T02:28:30.351Z,2.72
2022-11-12T02:29:01.598Z,2.72
2022-11-12T02:29:34.571Z,2.72
2022-11-12T02:30:05.988Z,2.72
2022-11-12T02:30:34.005Z,2.72
2022-11-12T02:30:53.818Z,2.72
2022-11-12T02:31:25.660Z,2.77
2022-11-12T02:31:58.229Z,2.77
2022-11-12T02:32:29.801Z,2.77
2022-11-12T02:33:02.454Z,2.77
2022-11-12T02:33:33.713Z,2.77
2022-11-12T02:34:06.616Z,2.88
2022-11-12T02:34:33.969Z,2.88
2022-11-12T02:34:54.040Z,2.88
2022-11-12T02:35:25.793Z,2.88
2022-11-12T02:35:57.696Z,2.88
2022-11-12T02:36:29.816Z,2.88
2022-11-12T02:37:01.818Z,2.77
2022-11-12T02:37:33.662Z,2.77
2022-11-12T02:38:22.572Z,2.77
2022-11-12T02:38:39.625Z,2.77
2022-11-12T02:39:10.849Z,2.72
2022-11-12T02:39:34.680Z,2.72
2022-11-12T02:39:57.680Z,2.72
2022-11-12T02:40:30.795Z,2.72
2022-11-12T02:41:01.850Z,2.72
2022-11-12T02:41:34.822Z,2.72
2022-11-12T02:42:05.657Z,2.72
2022-11-12T02:42:34.099Z,2.72
2022-11-12T02:42:53.719Z,2.72
2022-11-12T02:43:25.790Z,2.72
2022-11-12T02:44:01.825Z,2.72
2022-11-12T02:44:29.620Z,2.72
2022-11-12T02:45:02.765Z,2.72
2022-11-12T02:45:33.797Z,2.72
2022-11-12T02:46:06.275Z,2.72
2022-11-12T02:46:34.109Z,2.72
2022-11-12T02:46:53.629Z,2.72
2022-11-12T02:47:25.699Z,2.72
2022-11-12T02:47:57.663Z,2.77
2022-11-12T02:48:30.317Z,2.77
2022-11-12T02:49:01.812Z,2.77
2022-11-12T02:49:34.499Z,2.77
2022-11-12T02:50:05.855Z,2.77
2022-11-12T02:50:34.124Z,2.77
2022-11-12T02:50:53.808Z,2.77
2022-11-12T02:51:26.490Z,2.77
2022-11-12T02:51:59.191Z,2.77
2022-11-12T02:52:30.360Z,2.77
2022-11-12T02:53:01.665Z,2.72
2022-11-12T02:53:35.046Z,2.72
2022-11-12T02:54:05.799Z,2.72
2022-11-12T02:54:34.028Z,2.72
2022-11-12T02:54:55.450Z,2.72
2022-11-12T02:55:25.791Z,2.72
2022-11-12T02:55:58.567Z,2.72
2022-11-12T02:56:29.788Z,2.72
2022-11-12T02:57:02.424Z,2.72
2022-11-12T02:57:33.643Z,2.72
2022-11-12T02:58:06.651Z,2.72
2022-11-12T02:58:33.966Z,2.72
2022-11-12T02:58:53.790Z,2.72
2022-11-12T02:59:25.711Z,2.72
2022-11-12T02:59:57.646Z,2.72
2022-11-12T03:00:29.859Z,2.72
2022-11-12T03:01:01.969Z,2.72
2022-11-12T03:01:34.297Z,2.72
2022-11-12T03:02:05.695Z,2.72
2022-11-12T03:02:34.141Z,2.72
2022-11-12T03:02:53.765Z,2.72
2022-11-12T03:03:26.482Z,2.72
2022-11-12T03:03:57.671Z,2.72
2022-11-12T03:04:30.552Z,2.72
2022-11-12T03:05:01.878Z,2.72
2022-11-12T03:05:33.891Z,2.77
2022-11-12T03:06:06.227Z,2.77
2022-11-12T03:06:34.263Z,2.77
2022-11-12T03:07:26.101Z,2.72
2022-11-12T03:07:57.871Z,2.72
2022-11-12T03:08:30.406Z,2.72
2022-11-12T03:09:01.661Z,2.72
2022-11-12T03:09:34.648Z,2.72
2022-11-12T03:10:05.928Z,2.61
2022-11-12T03:10:33.983Z,2.61
2022-11-12T03:10:53.828Z,2.72
2022-11-12T03:11:25.731Z,2.72
2022-11-12T03:11:58.604Z,2.72
2022-11-12T03:12:29.881Z,2.72
2022-11-12T03:13:06.521Z,2.72
2022-11-12T03:13:33.667Z,2.61
2022-11-12T03:14:06.596Z,2.61
2022-11-12T03:14:33.963Z,2.61
2022-11-12T03:14:53.853Z,2.61
2022-11-12T03:15:26.971Z,2.61
2022-11-12T03:15:57.627Z,2.61
2022-11-12T03:16:30.468Z,2.61
2022-11-12T03:17:01.811Z,2.61
2022-11-12T03:17:34.716Z,2.61
2022-11-12T03:18:05.659Z,2.61
2022-11-12T03:18:33.997Z,2.61
2022-11-12T03:18:53.800Z,2.61
2022-11-12T03:19:25.848Z,2.61
2022-11-12T03:19:59.564Z,2.61
2022-11-12T03:20:29.818Z,2.61
2022-11-12T03:21:02.381Z,2.61
2022-11-12T03:21:34.022Z,2.61
2022-11-12T03:22:25.658Z,2.61
2022-11-12T03:22:42.048Z,2.61
2022-11-12T03:23:10.141Z,2.61
2022-11-12T03:23:34.859Z,2.61
2022-11-12T03:23:58.088Z,2.61
2022-11-12T03:24:30.636Z,2.61
2022-11-12T03:25:02.872Z,2.61
2022-11-12T03:25:34.886Z,2.61
2022-11-12T03:26:05.649Z,2.50
2022-11-12T03:26:35.956Z,2.50
2022-11-12T03:26:53.725Z,2.50
2022-11-12T03:27:28.407Z,2.50
2022-11-12T03:27:58.457Z,2.50
2022-11-12T03:28:29.904Z,2.50
2022-11-12T03:29:02.750Z,2.61
2022-11-12T03:29:33.836Z,2.61
2022-11-12T03:30:06.921Z,2.72
2022-11-12T03:30:34.115Z,2.72
2022-11-12T03:30:53.851Z,2.72
2022-11-12T03:31:25.649Z,2.72
2022-11-12T03:31:57.878Z,2.72
2022-11-12T03:32:30.326Z,2.72
2022-11-12T03:33:01.935Z,2.72
2022-11-12T03:33:34.074Z,2.77
2022-11-12T03:34:06.044Z,2.77
2022-11-12T03:34:34.025Z,2.77
2022-11-12T03:34:55.538Z,2.77
2022-11-12T03:35:26.754Z,2.77
2022-11-12T03:35:57.765Z,2.77
2022-11-12T03:36:30.577Z,2.77
2022-11-12T03:37:01.650Z,2.77
2022-11-12T03:37:34.675Z,2.77
2022-11-12T03:38:05.787Z,2.77
2022-11-12T03:38:33.949Z,2.77
2022-11-12T03:38:53.822Z,2.77
2022-11-12T03:39:25.666Z,2.77
2022-11-12T03:39:58.577Z,2.77
2022-11-12T03:40:29.988Z,2.77
2022-11-12T03:41:02.842Z,2.77
2022-11-12T03:41:33.659Z,2.72
2022-11-12T03:42:06.438Z,2.72
2022-11-12T03:42:33.940Z,2.72
2022-11-12T03:42:53.876Z,2.72
2022-11-12T03:43:25.807Z,2.72
2022-11-12T03:43:57.699Z,2.72
2022-11-12T03:44:29.657Z,2.61
2022-11-12T03:45:03.162Z,2.61
2022-11-12T03:45:33.969Z,2.61
2022-11-12T03:46:05.680Z,2.61
2022-11-12T03:46:34.085Z,2.61
2022-11-12T03:46:54.810Z,2.61
2022-11-12T03:47:28.399Z,2.61
2022-11-12T03:47:57.770Z,2.61
2022-11-12T03:48:30.523Z,2.61
2022-11-12T03:49:01.675Z,2.50
2022-11-12T03:49:34.715Z,2.50
2022-11-12T03:50:05.968Z,2.50
2022-11-12T03:50:35.184Z,2.50
2022-11-12T03:50:53.842Z,2.50
2022-11-12T03:51:25.748Z,2.50
2022-11-12T03:51:57.847Z,2.38
2022-11-12T03:52:29.738Z,2.38
2022-11-12T03:53:02.818Z,2.38
2022-11-12T03:53:33.715Z,2.38
2022-11-12T03:54:05.788Z,2.38
2022-11-12T03:54:34.110Z,2.38
2022-11-12T03:54:53.738Z,2.38
2022-11-12T03:55:26.658Z,2.38
2022-11-12T03:55:57.732Z,2.38
2022-11-12T03:56:30.898Z,2.38
2022-11-12T03:57:01.774Z,2.50
2022-11-12T03:57:35.549Z,2.50
2022-11-12T03:58:05.687Z,2.50
2022-11-12T03:58:35.052Z,2.50
2022-11-12T03:58:53.879Z,2.50
2022-11-12T03:59:25.749Z,2.50
2022-11-12T03:59:59.093Z,2.50
2022-11-12T04:00:30.963Z,2.50
2022-11-12T04:01:02.607Z,2.50
2022-11-12T04:01:33.753Z,2.50
2022-11-12T04:02:06.501Z,2.50
2022-11-12T04:02:34.882Z,2.50
2022-11-12T04:02:53.839Z,2.50
2022-11-12T04:03:25.907Z,2.50
2022-11-12T04:03:57.806Z,2.50
2022-11-12T04:04:29.771Z,2.50
2022-11-12T04:05:02.053Z,2.50
2022-11-12T04:05:33.838Z,2.61
2022-11-12T04:06:05.844Z,2.61
2022-11-12T04:06:34.277Z,2.61
2022-11-12T04:06:53.723Z,2.61
2022-11-12T04:07:26.458Z,2.72
2022-11-12T04:07:57.805Z,2.72
2022-11-12T04:08:30.509Z,2.77
2022-11-12T04:09:01.690Z,2.77
2022-11-12T04:09:34.821Z,2.77
2022-11-12T04:10:05.963Z,2.77
2022-11-12T04:10:34.053Z,2.88
2022-11-12T04:10:53.814Z,2.88
2022-11-12T04:11:25.741Z,2.88
2022-11-12T04:11:58.440Z,2.88
2022-11-12T04:12:30.154Z,2.88
2022-11-12T04:13:02.832Z,2.88
2022-11-12T04:13:34.777Z,3.00
2022-11-12T04:14:06.611Z,3.00
2022-11-12T04:14:33.974Z,3.00
2022-11-12T04:14:54.078Z,3.00
2022-11-12T04:15:25.859Z,2.88
2022-11-12T04:15:57.794Z,2.88
2022-11-12T04:16:29.901Z,2.88
2022-11-12T04:17:01.919Z,2.88
2022-11-12T04:17:34.597Z,2.77
2022-11-12T04:18:05.974Z,2.77
2022-11-12T04:18:34.077Z,2.77
2022-11-12T04:18:53.889Z,2.77
2022-11-12T04:19:26.395Z,2.77
2022-11-12T04:19:57.663Z,2.72
2022-11-12T04:20:30.719Z,2.72
2022-11-12T04:21:02.546Z,2.72
2022-11-12T04:21:34.968Z,2.72
2022-11-12T04:22:06.336Z,2.72
2022-11-12T04:22:34.123Z,2.72
2022-11-12T04:22:53.856Z,2.61
2022-11-12T04:23:26.754Z,2.61
2022-11-12T04:23:58.452Z,2.61
2022-11-12T04:24:29.680Z,2.61
2022-11-12T04:25:02.878Z,2.50
2022-11-12T04:25:33.917Z,2.50
2022-11-12T04:26:06.398Z,2.50
2022-11-12T04:26:33.928Z,2.50
2022-11-12T04:26:53.851Z,2.50
2022-11-12T04:27:25.820Z,2.50
2022-11-12T04:27:57.738Z,2.50
2022-11-12T04:28:29.746Z,2.50
2022-11-12T04:29:01.871Z,2.50
2022-11-12T04:29:37.436Z,2.50
2022-11-12T04:30:05.822Z,2.61
2022-11-12T04:30:34.540Z,2.61
2022-11-12T04:30:53.913Z,2.61
2022-11-12T04:31:26.425Z,2.61
2022-11-12T04:31:57.898Z,2.61
2022-11-12T04:32:30.559Z,2.61
2022-11-12T04:33:01.932Z,2.61
2022-11-12T04:33:35.374Z,2.50
2022-11-12T04:34:05.765Z,2.50
2022-11-12T04:34:34.222Z,2.50
2022-11-12T04:34:53.933Z,2.50
2022-11-12T04:35:26.047Z,2.50
2022-11-12T04:35:58.501Z,2.50
2022-11-12T04:36:29.681Z,2.50
2022-11-12T04:37:02.573Z,2.50
2022-11-12T04:37:34.717Z,2.50
2022-11-12T04:38:06.463Z,2.50
2022-11-12T04:38:34.860Z,2.50
2022-11-12T04:38:53.687Z,2.50
2022-11-12T04:39:25.841Z,2.50
2022-11-12T04:39:57.838Z,2.50
2022-11-12T04:40:30.015Z,2.50
2022-11-12T04:41:01.714Z,2.50
2022-11-12T04:41:33.958Z,2.50
2022-11-12T04:42:05.847Z,2.50
2022-11-12T04:42:39.287Z,2.50
2022-11-12T04:43:09.725Z,2.50
2022-11-12T04:43:34.447Z,2.50
2022-11-12T04:43:58.216Z,2.50
2022-11-12T04:44:29.814Z,2.50
2022-11-12T04:45:02.663Z,2.50
2022-11-12T04:45:34.316Z,2.50
2022-11-12T04:46:07.163Z,2.38
2022-11-12T04:46:34.800Z,2.38
2022-11-12T04:46:55.203Z,2.38
2022-11-12T04:47:26.270Z,2.38
2022-11-12T04:47:58.412Z,2.38
2022-11-12T04:48:30.166Z,2.38
2022-11-12T04:49:02.327Z,2.38
2022-11-12T04:49:37.030Z,2.38
2022-11-12T04:50:06.076Z,2.38
2022-11-12T04:50:34.019Z,2.38
2022-11-12T04:50:54.014Z,2.38
2022-11-12T04:51:26.967Z,2.38
2022-11-12T04:51:57.714Z,2.38
2022-11-12T04:52:29.852Z,2.38
2022-11-12T04:53:02.186Z,2.38
2022-11-12T04:53:39.168Z,2.38
2022-11-12T04:54:05.741Z,2.38
2022-11-12T04:55:05.340Z,2.38
2022-11-12T04:55:25.914Z,2.50
2022-11-12T04:55:58.008Z,2.50
2022-11-12T04:56:30.454Z,2.61
2022-11-12T04:57:01.765Z,2.61
2022-11-12T04:57:37.108Z,2.61
2022-11-12T04:58:05.863Z,2.61
2022-11-12T04:58:34.153Z,2.61
2022-11-12T04:58:53.716Z,2.61
2022-11-12T04:59:26.328Z,2.61
2022-11-12T05:00:17.456Z,2.61
2022-11-12T05:00:45.978Z,2.61
2022-11-12T05:01:18.341Z,2.61
2022-11-12T05:01:49.857Z,2.50
2022-11-12T05:02:23.106Z,2.50
2022-11-12T05:02:40.243Z,2.50
2022-11-12T05:03:09.736Z,2.50
2022-11-12T05:03:34.042Z,2.50
2022-11-12T05:03:57.787Z,2.38
2022-11-12T05:04:30.312Z,2.38
2022-11-12T05:05:02.074Z,2.38
2022-11-12T05:05:34.502Z,2.38
2022-11-12T05:06:05.748Z,2.38
2022-11-12T05:06:34.109Z,2.38
2022-11-12T05:06:54.019Z,2.38
2022-11-12T05:07:25.965Z,2.38
2022-11-12T05:07:58.460Z,2.38
2022-11-12T05:08:29.697Z,2.38
2022-11-12T05:09:02.882Z,2.38
2022-11-12T05:09:33.915Z,2.38
2022-11-12T05:10:06.695Z,2.38
2022-11-12T05:10:34.215Z,2.38
2022-11-12T05:10:53.823Z,2.38
2022-11-12T05:11:29.127Z,2.38
2022-11-12T05:11:57.943Z,2.38
2022-11-12T05:12:29.744Z,2.38
2022-11-12T05:13:01.723Z,2.38
2022-11-12T05:13:33.889Z,2.38
2022-11-12T05:14:05.881Z,2.38
2022-11-12T05:14:34.133Z,2.38
2022-11-12T05:14:53.753Z,2.38
2022-11-12T05:15:26.831Z,2.27
2022-11-12T05:15:57.882Z,2.27
2022-11-12T05:16:46.665Z,2.27
2022-11-12T05:17:17.734Z,2.27
2022-11-12T05:17:49.931Z,2.27
2022-11-12T05:18:21.918Z,2.22
2022-11-12T05:18:39.113Z,2.22
2022-11-12T05:19:11.429Z,2.22
2022-11-12T05:19:34.115Z,2.22
2022-11-12T05:19:57.805Z,2.22
2022-11-12T05:20:32.597Z,2.27
2022-11-12T05:21:01.767Z,2.27
2022-11-12T05:21:34.597Z,2.27
2022-11-12T05:22:05.829Z,2.27
2022-11-12T05:22:45.600Z,2.27
2022-11-12T05:23:06.442Z,2.27
2022-11-12T05:23:26.975Z,2.38
2022-11-12T05:23:57.756Z,2.38
2022-11-12T05:24:41.674Z,2.38
2022-11-12T05:25:02.137Z,2.38
2022-11-12T05:25:34.456Z,2.38
2022-11-12T05:26:05.742Z,2.38
2022-11-12T05:26:34.065Z,2.38
2022-11-12T05:26:53.869Z,2.27
2022-11-12T05:27:25.767Z,2.27
2022-11-12T05:27:58.578Z,2.27
2022-11-12T05:28:34.015Z,2.27
2022-11-12T05:29:07.538Z,2.27
2022-11-12T05:29:33.954Z,2.27
2022-11-12T05:30:06.786Z,2.22
2022-11-12T05:30:34.385Z,2.22
2022-11-12T05:30:53.983Z,2.22
2022-11-12T05:31:25.916Z,2.22
2022-11-12T05:31:57.983Z,2.22
2022-11-12T05:32:29.732Z,2.22
2022-11-12T05:33:02.029Z,2.22
2022-11-12T05:33:33.876Z,2.22
2022-11-12T05:34:09.806Z,2.22
2022-11-12T05:34:34.793Z,2.22
2022-11-12T05:34:53.765Z,2.22
2022-11-12T05:35:26.097Z,2.22
2022-11-12T05:35:57.945Z,2.22
2022-11-12T05:36:30.190Z,2.22
2022-11-12T05:37:01.767Z,2.22
2022-11-12T05:37:33.934Z,2.22
2022-11-12T05:38:05.968Z,2.22
2022-11-12T05:38:34.170Z,2.22
2022-11-12T05:38:54.534Z,2.22
2022-11-12T05:39:25.876Z,2.11
2022-11-12T05:39:59.443Z,2.11
2022-11-12T05:40:30.007Z,2.11
2022-11-12T05:41:02.600Z,2.11
2022-11-12T05:41:51.399Z,2.11
2022-11-12T05:42:13.025Z,2.11
2022-11-12T05:42:35.065Z,2.11
2022-11-12T05:42:53.791Z,2.11
2022-11-12T05:43:25.811Z,2.11
2022-11-12T05:43:57.860Z,2.00
2022-11-12T05:44:29.942Z,2.00
2022-11-12T05:45:02.159Z,2.00
2022-11-12T05:45:33.754Z,2.00
2022-11-12T05:46:05.802Z,2.11
2022-11-12T05:46:34.688Z,2.11
2022-11-12T05:46:53.889Z,2.11
2022-11-12T05:47:26.489Z,2.11
2022-11-12T05:47:57.840Z,2.22
2022-11-12T05:48:31.917Z,2.22
2022-11-12T05:49:01.917Z,2.22
2022-11-12T05:49:34.621Z,2.22
2022-11-12T05:50:05.922Z,2.22
2022-11-12T05:50:51.304Z,2.11
2022-11-12T05:51:13.702Z,2.11
2022-11-12T05:51:33.978Z,2.11
2022-11-12T05:51:58.685Z,2.11
2022-11-12T05:52:29.810Z,2.00
2022-11-12T05:53:02.522Z,2.00
2022-11-12T05:53:34.012Z,2.00
2022-11-12T05:54:06.583Z,2.00
2022-11-12T05:54:34.043Z,2.00
2022-11-12T05:54:53.833Z,2.11
2022-11-12T05:55:26.056Z,2.11
2022-11-12T05:55:57.793Z,2.11
2022-11-12T05:56:29.843Z,2.11
2022-11-12T05:57:01.868Z,2.11
2022-11-12T05:57:33.969Z,2.11
2022-11-12T05:58:05.906Z,2.11
2022-11-12T05:58:34.144Z,2.11
2022-11-12T05:58:54.763Z,2.11
2022-11-12T05:59:26.548Z,2.11
2022-11-12T05:59:57.907Z,2.11
2022-11-12T06:00:30.732Z,2.11
2022-11-12T06:01:01.835Z,2.11
2022-11-12T06:01:35.940Z,2.11
2022-11-12T06:02:05.996Z,2.11
2022-11-12T06:02:34.292Z,2.11
2022-11-12T06:02:53.842Z,2.11
2022-11-12T06:03:25.741Z,2.11
2022-11-12T06:03:58.625Z,2.11
2022-11-12T06:04:29.913Z,2.11
2022-11-12T06:05:02.599Z,2.11
2022-11-12T06:05:33.737Z,2.11
2022-11-12T06:06:05.925Z,2.11
2022-11-12T06:06:35.116Z,2.11
2022-11-12T06:06:53.880Z,2.22
2022-11-12T06:07:42.752Z,2.22
2022-11-12T06:08:13.933Z,2.22
2022-11-12T06:08:34.300Z,2.22
2022-11-12T06:09:03.572Z,2.27
2022-11-12T06:09:33.846Z,2.27
2022-11-12T06:10:06.535Z,2.27
2022-11-12T06:10:34.078Z,2.27
2022-11-12T06:10:54.209Z,2.27
2022-11-12T06:11:25.763Z,2.27
2022-11-12T06:11:57.958Z,2.27
2022-11-12T06:12:30.022Z,2.27
2022-11-12T06:13:01.805Z,2.27
2022-11-12T06:13:33.767Z,2.27
2022-11-12T06:14:06.165Z,2.27
2022-11-12T06:14:33.992Z,2.27
2022-11-12T06:14:53.935Z,2.27
2022-11-12T06:15:27.010Z,2.27
2022-11-12T06:15:57.749Z,2.27
2022-11-12T06:16:30.286Z,2.27
2022-11-12T06:17:17.794Z,2.27
2022-11-12T06:17:49.832Z,2.27
2022-11-12T06:18:21.832Z,2.27
2022-11-12T06:18:41.092Z,2.27
2022-11-12T06:19:09.981Z,2.27
2022-11-12T06:19:34.240Z,2.27
2022-11-12T06:19:57.755Z,2.27
2022-11-12T06:20:29.941Z,2.27
2022-11-12T06:21:03.316Z,2.27
2022-11-12T06:21:33.789Z,2.27
2022-11-12T06:22:06.635Z,2.27
2022-11-12T06:22:33.970Z,2.27
2022-11-12T06:22:53.980Z,2.27
2022-11-12T06:23:25.933Z,2.27
2022-11-12T06:23:57.815Z,2.27
2022-11-12T06:24:34.685Z,2.22
2022-11-12T06:25:02.130Z,2.22
2022-11-12T06:25:34.217Z,2.22
2022-11-12T06:26:06.407Z,2.22
2022-11-12T06:26:34.155Z,2.22
2022-11-12T06:26:53.855Z,2.27
2022-11-12T06:27:26.955Z,2.27
2022-11-12T06:27:58.344Z,2.38
2022-11-12T06:28:30.758Z,2.38
2022-11-12T06:29:01.811Z,2.38
2022-11-12T06:29:35.056Z,2.38
2022-11-12T06:30:06.126Z,2.38
2022-11-12T06:30:34.191Z,2.38
2022-11-12T06:30:53.852Z,2.38
2022-11-12T06:31:34.606Z,2.38
2022-11-12T06:31:59.280Z,2.38
2022-11-12T06:32:29.829Z,2.38
2022-11-12T06:33:02.628Z,2.50
2022-11-12T06:33:34.138Z,2.50
2022-11-12T06:34:06.525Z,2.50
2022-11-12T06:34:34.920Z,2.50
2022-11-12T06:34:53.779Z,2.50
2022-11-12T06:35:26.134Z,2.50
2022-11-12T06:35:57.926Z,2.50
2022-11-12T06:36:29.779Z,2.50
2022-11-12T06:37:01.818Z,2.50
2022-11-12T06:37:34.048Z,2.50
2022-11-12T06:38:06.015Z,2.38
2022-11-12T06:38:34.298Z,2.38
2022-11-12T06:38:53.823Z,2.38
2022-11-12T06:39:26.706Z,2.38
2022-11-12T06:39:57.983Z,2.27
2022-11-12T06:40:30.690Z,2.27
2022-11-12T06:41:01.875Z,2.27
2022-11-12T06:41:34.935Z,2.27
2022-11-12T06:42:05.977Z,2.27
2022-11-12T06:42:34.148Z,2.27
2022-11-12T06:42:53.756Z,2.22
2022-11-12T06:43:25.780Z,2.22